Central Victoria, Mexico

5:12 AM EDT on August 19, 2017 (GMT -0400)
Hotel Grand Velas | | Change Station

Elev 0 ft 20.67 °N, 87.02 °W | Updated 5 minutes ago

Partly Cloudy
Partly Cloudy
73.9 °F
Feels Like 71 °F
N
2.0
Wind Variable Wind from WNW
Gusts 4.0 mph

Today
High -- | Low -- °F
--% Chance of Precip.
Yesterday
High -- | Low -- °F
Precip. -- in
Pressure 29.94 in
Visibility 7.0 miles
Clouds Scattered Clouds 1500 ft
Scattered Clouds 30000 ft
Heat Index 71 °F
Dew Point 72 °F
Humidity 94%
Rainfall 0.00 in
Snow Depth Not available.
7:29 AM 8:15 PM
Waning Crescent, 8% visible
METAR MMUN 190848Z 00000KT 7SM SCT015 SCT300 23/23 A2994 RMK SLP139 57019 955 8/108
Pressure 29.94 in
Visibility 7.0 miles
Clouds Scattered Clouds 1500 ft
Scattered Clouds 30000 ft
Heat Index 71 °F
Dew Point 72 °F
Humidity 94%
Rainfall 0.00 in
Snow Depth Not available.
7:29 AM 8:15 PM
Waning Crescent, 8% visible
METAR MMUN 190848Z 00000KT 7SM SCT015 SCT300 23/23 A2994 RMK SLP139 57019 955 8/108

Get Severe Weather Alerts

Thanks for signing up!

Be on the lookout for a verification email in your inbox.

You'll start receiving the daily forecast at 6 AM.

×

10-Day Weather Forecast

No radar image for this location.
×

Almanac

Astronomy

Aug. 19, 2017 Rise Set
Actual Time
Civil Twilight
Nautical Twilight
Astronomical Twilight
Moon
Length of Visible Light
Length of Day
Tomorrow will be .
, % of the Moon is Illuminated

Today's Extremes

Country Highs Country Lows

Community

WunderPhotos

Category 6

Welcome to Category 6. This is the collective home for Weather Underground's featured writeups by Dr. Jeff Masters (right), Bob Henson (left), Chris Burt, and other regular contributors.

Nearby

Air Quality

  Air Quality AQ Index Pollutant
Not available.

Snow Depth

Station Depth Elevation

Earthquake Activity

City Distance Mag. Time & Date
Minimum magnitude displayed is 2.5.

Coastal Water Temperatures

Place Temperature

Stations

Nearby Weather Stations

Station Location Temp. Windchill Dew Point Humidity Wind Precip. Elev Updated Type